createdAt,value
2016-12-15T00:00:32.008Z,95.84
2016-12-15T00:01:31.997Z,95.65
2016-12-15T00:02:31.986Z,95.93
2016-12-15T00:03:31.973Z,95.27
2016-12-15T00:04:31.963Z,94.03
2016-12-15T00:05:31.951Z,93.75
2016-12-15T00:06:31.937Z,93.75
2016-12-15T00:07:31.955Z,94.46
2016-12-15T00:08:31.916Z,94.46
2016-12-15T00:09:31.906Z,95.03
2016-12-15T00:10:31.893Z,95.12
2016-12-15T00:11:31.879Z,95.03
2016-12-15T00:12:31.870Z,95.27
2016-12-15T00:13:31.857Z,95.5
2016-12-15T00:14:31.847Z,95.27
2016-12-15T00:15:31.835Z,95.79
2016-12-15T00:16:31.822Z,95.03
2016-12-15T00:17:31.840Z,95.12
2016-12-15T00:18:31.800Z,95.07
2016-12-15T00:19:31.788Z,94.93
2016-12-15T00:20:31.775Z,95.22
2016-12-15T00:21:31.765Z,95.03
2016-12-15T00:22:31.753Z,95.5
2016-12-15T00:23:31.743Z,95.6
2016-12-15T00:24:31.728Z,95.12
2016-12-15T00:25:31.718Z,95.41
2016-12-15T00:26:31.706Z,94.74
2016-12-15T00:27:31.697Z,94.93
2016-12-15T00:28:32.282Z,94.93
2016-12-15T00:29:31.673Z,95.12
2016-12-15T00:30:31.660Z,94.56
2016-12-15T00:31:31.648Z,94.27
2016-12-15T00:32:31.638Z,93.7
2016-12-15T00:33:31.623Z,93.61
2016-12-15T00:34:31.612Z,94.46
2016-12-15T00:35:31.602Z,94.46
2016-12-15T00:36:31.589Z,94.84
2016-12-15T00:37:31.579Z,95.22
2016-12-15T00:38:31.565Z,95.31
2016-12-15T00:39:31.552Z,95.69
2016-12-15T00:40:31.541Z,95.6
2016-12-15T00:41:31.531Z,95.79
2016-12-15T00:42:31.519Z,95.79
2016-12-15T00:43:31.506Z,95.5
2016-12-15T00:44:31.496Z,95.79
2016-12-15T00:45:31.483Z,95.79
2016-12-15T00:46:31.469Z,95.6
2016-12-15T00:47:31.459Z,95.41
2016-12-15T00:48:31.447Z,95.03
2016-12-15T00:49:31.433Z,95.22
2016-12-15T00:50:31.424Z,95.12
2016-12-15T00:51:31.412Z,95.22
2016-12-15T00:52:31.429Z,95.12
2016-12-15T00:53:31.387Z,95.41
2016-12-15T00:54:31.375Z,95.03
2016-12-15T00:55:31.366Z,95.12
2016-12-15T00:56:31.355Z,95.41
2016-12-15T00:57:31.340Z,95.79
2016-12-15T00:58:31.328Z,95.5
2016-12-15T00:59:31.316Z,94.93
2016-12-15T01:00:31.306Z,95.69
2016-12-15T01:01:31.292Z,95.41
2016-12-15T01:02:31.281Z,95.98
2016-12-15T01:03:31.272Z,95.98
2016-12-15T01:04:31.258Z,94.93
2016-12-15T01:05:31.246Z,94.93
2016-12-15T01:06:31.235Z,95.12
2016-12-15T01:07:31.225Z,95.03
2016-12-15T01:08:31.212Z,95.41
2016-12-15T01:09:31.206Z,94.84
2016-12-15T01:10:31.189Z,94.84
2016-12-15T01:11:31.176Z,95.12
2016-12-15T01:12:31.165Z,94.93
2016-12-15T01:13:31.153Z,95.12
2016-12-15T01:14:31.142Z,94.74
2016-12-15T01:15:31.129Z,95.12
2016-12-15T01:16:31.119Z,94.46
2016-12-15T01:17:31.105Z,94.27
2016-12-15T01:18:31.094Z,94.46
2016-12-15T01:19:31.082Z,94.84
2016-12-15T01:20:31.069Z,94.93
2016-12-15T01:21:31.058Z,94.93
2016-12-15T01:22:31.048Z,94.93
2016-12-15T01:23:31.034Z,94.27
2016-12-15T01:24:31.329Z,94.37
2016-12-15T01:25:31.010Z,94.27
2016-12-15T01:26:30.998Z,94.46
2016-12-15T01:27:30.987Z,93.99
2016-12-15T01:28:30.975Z,94.08
2016-12-15T01:29:30.963Z,95.12
2016-12-15T01:30:30.954Z,95.22
2016-12-15T01:31:30.939Z,95.03
2016-12-15T01:32:30.929Z,95.22
2016-12-15T01:33:30.914Z,95.03
2016-12-15T01:34:30.906Z,95.12
2016-12-15T01:35:30.891Z,94.93
2016-12-15T01:36:30.879Z,95.03
2016-12-15T01:37:30.879Z,95.6
2016-12-15T01:38:30.857Z,95.12
2016-12-15T01:39:30.845Z,95.88
2016-12-15T01:40:30.833Z,95.12
2016-12-15T01:41:30.821Z,95.12
2016-12-15T01:42:30.813Z,94.93
2016-12-15T01:43:30.800Z,95.12
2016-12-15T01:44:30.785Z,94.84
2016-12-15T01:45:30.776Z,95.03
2016-12-15T01:46:30.762Z,94.84
2016-12-15T01:47:30.750Z,95.27
2016-12-15T01:48:30.739Z,95.41
2016-12-15T01:49:30.726Z,95.03
2016-12-15T01:50:30.718Z,95.03
2016-12-15T01:51:30.706Z,94.74
2016-12-15T01:52:30.692Z,94.93
2016-12-15T01:53:30.682Z,94.89
2016-12-15T01:54:30.669Z,94.79
2016-12-15T01:55:30.656Z,94.89
2016-12-15T01:56:30.648Z,94.98
2016-12-15T01:57:30.634Z,95.27
2016-12-15T01:58:30.621Z,94.51
2016-12-15T01:59:30.608Z,94.6
2016-12-15T02:00:30.597Z,94.6
2016-12-15T02:01:30.587Z,94.32
2016-12-15T02:02:30.572Z,94.32
2016-12-15T02:03:30.563Z,94.03
2016-12-15T02:04:30.854Z,94.08
2016-12-15T02:05:30.538Z,94.32
2016-12-15T02:06:30.529Z,94.32
2016-12-15T02:07:30.516Z,93.94
2016-12-15T02:08:30.503Z,94.74
2016-12-15T02:09:30.500Z,94.65
2016-12-15T02:10:30.479Z,94.7
2016-12-15T02:11:30.467Z,94.79
2016-12-15T02:12:30.461Z,94.42
2016-12-15T02:13:30.448Z,94.37
2016-12-15T02:14:30.434Z,94.18
2016-12-15T02:15:30.423Z,94.37
2016-12-15T02:16:30.410Z,94.03
2016-12-15T02:17:30.399Z,94.46
2016-12-15T02:18:30.386Z,94.51
2016-12-15T02:19:30.375Z,94.37
2016-12-15T02:20:30.367Z,94.37
2016-12-15T02:21:30.352Z,94.6
2016-12-15T02:22:30.368Z,94.65
2016-12-15T02:23:30.329Z,93.89
2016-12-15T02:24:30.318Z,94.03
2016-12-15T02:25:30.306Z,94.23
2016-12-15T02:26:30.296Z,93.84
2016-12-15T02:27:30.286Z,93.94
2016-12-15T02:28:30.270Z,94.08
2016-12-15T02:29:30.259Z,93.89
2016-12-15T02:30:30.249Z,94.03
2016-12-15T02:31:30.241Z,93.8
2016-12-15T02:32:30.224Z,93.7
2016-12-15T02:33:30.213Z,94.08
2016-12-15T02:34:30.204Z,94.18
2016-12-15T02:35:30.190Z,93.41
2016-12-15T02:36:30.177Z,93.7
2016-12-15T02:37:30.165Z,93.7
2016-12-15T02:38:30.156Z,94.08
2016-12-15T02:39:30.141Z,93.99
2016-12-15T02:40:30.130Z,94.23
2016-12-15T02:41:30.122Z,94.13
2016-12-15T02:42:30.109Z,94.08
2016-12-15T02:43:30.096Z,94.08
2016-12-15T02:44:30.091Z,94.23
2016-12-15T02:45:30.073Z,94.03
2016-12-15T02:46:30.062Z,93.84
2016-12-15T02:47:30.049Z,93.65
2016-12-15T02:48:30.039Z,93.41
2016-12-15T02:49:30.029Z,93.23
2016-12-15T02:50:30.015Z,93.27
2016-12-15T02:51:30.002Z,93.13
2016-12-15T02:52:29.994Z,93.37
2016-12-15T02:53:29.979Z,93.13
2016-12-15T02:54:29.970Z,93.08
2016-12-15T02:55:29.955Z,93.46
2016-12-15T02:56:29.944Z,93.13
2016-12-15T02:57:29.933Z,93.61
2016-12-15T02:58:29.923Z,93.56
2016-12-15T02:59:29.912Z,93.65
2016-12-15T03:00:29.898Z,93.46
2016-12-15T03:01:29.892Z,93.56
2016-12-15T03:02:29.875Z,93.27
2016-12-15T03:03:29.861Z,93.37
2016-12-15T03:04:29.851Z,92.99
2016-12-15T03:05:29.838Z,92.99
2016-12-15T03:06:29.830Z,93.18
2016-12-15T03:07:29.815Z,93.46
2016-12-15T03:08:29.822Z,93.18
2016-12-15T03:09:29.790Z,92.99
2016-12-15T03:10:29.781Z,93.27
2016-12-15T03:11:29.772Z,93.46
2016-12-15T03:12:29.757Z,93.46
2016-12-15T03:13:29.745Z,93.46
2016-12-15T03:14:29.734Z,93.27
2016-12-15T03:15:29.721Z,93.46
2016-12-15T03:16:29.712Z,93.27
2016-12-15T03:17:29.697Z,92.9
2016-12-15T03:18:29.687Z,92.61
2016-12-15T03:19:29.675Z,93.08
2016-12-15T03:20:29.666Z,92.9
2016-12-15T03:21:29.653Z,92.99
2016-12-15T03:22:29.641Z,92.71
2016-12-15T03:23:29.629Z,92.61
2016-12-15T03:24:29.622Z,92.52
2016-12-15T03:25:29.630Z,92.23
2016-12-15T03:26:29.600Z,92.42
2016-12-15T03:27:29.584Z,92.33
2016-12-15T03:28:29.573Z,91.94
2016-12-15T03:29:29.560Z,91.85
2016-12-15T03:30:29.549Z,91.52
2016-12-15T03:31:29.538Z,92.04
2016-12-15T03:32:29.525Z,91.99
2016-12-15T03:33:29.515Z,92.18
2016-12-15T03:34:29.502Z,92.47
2016-12-15T03:35:29.495Z,92.57
2016-12-15T03:36:29.479Z,92.47
2016-12-15T03:37:29.468Z,92.38
2016-12-15T03:38:29.455Z,92.33
2016-12-15T03:39:29.448Z,92.61
2016-12-15T03:40:29.433Z,92.71
2016-12-15T03:41:29.425Z,92.42
2016-12-15T03:42:29.411Z,92.71
2016-12-15T03:43:29.397Z,92.23
2016-12-15T03:44:29.387Z,92.23
2016-12-15T03:45:29.374Z,92.23
2016-12-15T03:46:29.362Z,92.52
2016-12-15T03:47:29.351Z,92.42
2016-12-15T03:48:29.340Z,92.52
2016-12-15T03:49:29.330Z,92.71
2016-12-15T03:50:29.322Z,92.71
2016-12-15T03:51:29.305Z,91.85
2016-12-15T03:52:29.294Z,92.52
2016-12-15T03:53:29.281Z,92.42
2016-12-15T03:54:29.271Z,92.23
2016-12-15T03:55:29.259Z,92.33
2016-12-15T03:56:29.248Z,92.42
2016-12-15T03:57:29.238Z,92.04
2016-12-15T03:58:29.225Z,91.75
2016-12-15T03:59:29.215Z,91.56
2016-12-15T04:00:29.201Z,91.56
2016-12-15T04:01:29.190Z,91.66
2016-12-15T04:02:29.180Z,91.56
2016-12-15T04:03:29.166Z,91.94
2016-12-15T04:04:29.164Z,91.66
2016-12-15T04:05:29.144Z,91.56
2016-12-15T04:06:29.137Z,92.04
2016-12-15T04:07:29.121Z,91.66
2016-12-15T04:08:29.115Z,91.66
2016-12-15T04:09:29.100Z,91.66
2016-12-15T04:10:29.089Z,91.66
2016-12-15T04:11:29.076Z,91.66
2016-12-15T04:12:29.064Z,91.47
2016-12-15T04:13:29.056Z,91.75
2016-12-15T04:14:29.039Z,91.19
2016-12-15T04:15:29.054Z,91.85
2016-12-15T04:16:29.017Z,91.94
2016-12-15T04:17:29.006Z,91.47
2016-12-15T04:18:28.995Z,91.38
2016-12-15T04:19:28.984Z,91.38
2016-12-15T04:20:28.972Z,91.38
2016-12-15T04:21:28.960Z,91.38
2016-12-15T04:22:28.949Z,91.28
2016-12-15T04:23:28.942Z,91.28
2016-12-15T04:24:28.926Z,91.28
2016-12-15T04:25:28.916Z,91.38
2016-12-15T04:26:28.905Z,91.28
2016-12-15T04:27:28.892Z,91.19
2016-12-15T04:28:28.879Z,91
2016-12-15T04:29:28.870Z,90.43
2016-12-15T04:30:28.861Z,90.62
2016-12-15T04:31:28.849Z,91.19
2016-12-15T04:32:28.837Z,91
2016-12-15T04:33:28.823Z,91.19
2016-12-15T04:34:28.811Z,91
2016-12-15T04:35:28.801Z,90.71
2016-12-15T04:36:28.789Z,91.47
2016-12-15T04:37:28.780Z,91.38
2016-12-15T04:38:28.767Z,91.38
2016-12-15T04:39:28.753Z,90.9
2016-12-15T04:40:28.742Z,91.19
2016-12-15T04:41:28.733Z,91.47
2016-12-15T04:42:28.720Z,91.19
2016-12-15T04:43:28.710Z,90.52
2016-12-15T04:44:28.701Z,90.81
2016-12-15T04:45:28.687Z,89.67
2016-12-15T04:46:28.675Z,89.2
2016-12-15T04:47:28.664Z,89.2
2016-12-15T04:48:28.650Z,89.76
2016-12-15T04:49:28.646Z,89.95
2016-12-15T04:50:28.636Z,90.29
2016-12-15T04:51:28.626Z,90.57
2016-12-15T04:52:28.606Z,90.95
2016-12-15T04:53:28.601Z,91.38
2016-12-15T04:54:28.582Z,91.28
2016-12-15T04:55:28.571Z,91.28
2016-12-15T04:56:28.558Z,91.38
2016-12-15T04:57:28.548Z,91.56
2016-12-15T04:58:28.536Z,91.47
2016-12-15T04:59:28.524Z,91.38
2016-12-15T05:00:28.514Z,91.47
2016-12-15T05:01:28.500Z,91.47
2016-12-15T05:02:28.490Z,91.56
2016-12-15T05:03:28.477Z,91.19
2016-12-15T05:04:28.469Z,91.38
2016-12-15T05:05:28.456Z,91.47
2016-12-15T05:06:28.445Z,91.56
2016-12-15T05:07:28.431Z,91.47
2016-12-15T05:08:28.422Z,91.47
2016-12-15T05:09:28.407Z,91.19
2016-12-15T05:10:28.396Z,91.28
2016-12-15T05:11:28.389Z,91.38
2016-12-15T05:12:28.374Z,91.47
2016-12-15T05:13:28.361Z,91.38
2016-12-15T05:14:28.351Z,91.47
2016-12-15T05:15:28.343Z,91.28
2016-12-15T05:16:28.327Z,91.38
2016-12-15T05:17:28.317Z,91
2016-12-15T05:18:28.305Z,91
2016-12-15T05:19:28.293Z,91.19
2016-12-15T05:20:28.282Z,91.09
2016-12-15T05:21:28.273Z,91.09
2016-12-15T05:22:28.258Z,91.28
2016-12-15T05:23:28.250Z,91.19
2016-12-15T05:24:28.235Z,91.38
2016-12-15T05:25:28.224Z,90.9
2016-12-15T05:26:28.213Z,91
2016-12-15T05:27:28.202Z,90.9
2016-12-15T05:28:28.191Z,91.09
2016-12-15T05:29:28.178Z,91.09
2016-12-15T05:30:28.170Z,91.19
2016-12-15T05:31:28.155Z,91.47
2016-12-15T05:32:28.164Z,91.38
2016-12-15T05:33:28.133Z,90.9
2016-12-15T05:34:28.121Z,91.19
2016-12-15T05:35:28.109Z,91.19
2016-12-15T05:36:28.097Z,91.09
2016-12-15T05:37:28.090Z,90.71
2016-12-15T05:38:28.073Z,91
2016-12-15T05:39:28.063Z,91.09
2016-12-15T05:40:28.052Z,91.47
2016-12-15T05:41:28.040Z,91.38
2016-12-15T05:42:28.030Z,91.19
2016-12-15T05:43:28.017Z,90.71
2016-12-15T05:44:28.005Z,90.05
2016-12-15T05:45:27.993Z,89.95
2016-12-15T05:46:27.983Z,90.57
2016-12-15T05:47:27.969Z,91.14
2016-12-15T05:48:27.960Z,91.14
2016-12-15T05:49:27.949Z,91.24
2016-12-15T05:50:27.935Z,91.14
2016-12-15T05:51:27.924Z,91.14
2016-12-15T05:52:27.913Z,91.05
2016-12-15T05:53:27.901Z,90.95
2016-12-15T05:54:27.890Z,91.14
2016-12-15T05:55:27.879Z,91.24
2016-12-15T05:56:27.866Z,91.33
2016-12-15T05:57:27.858Z,91.05
2016-12-15T05:58:27.846Z,91.05
2016-12-15T05:59:27.833Z,91.24
2016-12-15T06:00:27.819Z,91.14
2016-12-15T06:01:27.809Z,91.33
2016-12-15T06:02:27.798Z,91.14
2016-12-15T06:03:27.785Z,90.48
2016-12-15T06:04:27.774Z,90.86
2016-12-15T06:05:27.760Z,90.48
2016-12-15T06:06:27.749Z,90.57
2016-12-15T06:07:27.735Z,90.67
2016-12-15T06:08:27.725Z,91.33
2016-12-15T06:09:27.716Z,90.86
2016-12-15T06:10:27.702Z,91.9
2016-12-15T06:11:27.690Z,91.99
2016-12-15T06:12:27.678Z,91.9
2016-12-15T06:13:27.667Z,91.8
2016-12-15T06:14:27.654Z,91.8
2016-12-15T06:15:27.645Z,91.8
2016-12-15T06:16:27.631Z,91.8
2016-12-15T06:17:27.620Z,91.8
2016-12-15T06:18:27.609Z,91.61
2016-12-15T06:19:27.599Z,91.61
2016-12-15T06:20:27.584Z,91.52
2016-12-15T06:21:27.573Z,91.71
2016-12-15T06:22:27.561Z,91.71
2016-12-15T06:23:27.850Z,91.42
2016-12-15T06:24:27.536Z,91.8
2016-12-15T06:25:27.524Z,91.85
2016-12-15T06:26:27.511Z,91.61
2016-12-15T06:27:27.502Z,91.71
2016-12-15T06:28:27.488Z,91.61
2016-12-15T06:29:27.503Z,91.38
2016-12-15T06:30:27.466Z,91.14
2016-12-15T06:31:27.454Z,91.38
2016-12-15T06:32:27.444Z,91.19
2016-12-15T06:33:27.430Z,91.24
2016-12-15T06:34:27.419Z,91.47
2016-12-15T06:35:27.406Z,91.19
2016-12-15T06:36:27.395Z,91.19
2016-12-15T06:37:27.384Z,90.67
2016-12-15T06:38:27.372Z,90.62
2016-12-15T06:39:27.360Z,90.57
2016-12-15T06:40:27.346Z,90.57
2016-12-15T06:41:27.335Z,90.67
2016-12-15T06:42:27.324Z,90.95
2016-12-15T06:43:27.312Z,90.95
2016-12-15T06:44:27.301Z,91.24
2016-12-15T06:45:27.288Z,91.05
2016-12-15T06:46:27.276Z,90.86
2016-12-15T06:47:27.265Z,91.14
2016-12-15T06:48:27.256Z,91.24
2016-12-15T06:49:27.242Z,91.05
2016-12-15T06:50:27.229Z,91.24
2016-12-15T06:51:27.216Z,91.33
2016-12-15T06:52:27.206Z,91.33
2016-12-15T06:53:27.193Z,91.24
2016-12-15T06:54:27.182Z,91.42
2016-12-15T06:55:27.477Z,91.24
2016-12-15T06:56:27.158Z,90.67
2016-12-15T06:57:27.148Z,91.14
2016-12-15T06:58:27.137Z,91.05
2016-12-15T06:59:27.122Z,90.86
2016-12-15T07:00:27.112Z,91.33
2016-12-15T07:01:27.101Z,91.33
2016-12-15T07:02:27.086Z,91.24
2016-12-15T07:03:27.076Z,91.42
2016-12-15T07:04:27.063Z,91.33
2016-12-15T07:05:27.052Z,91.33
2016-12-15T07:06:27.038Z,91.05
2016-12-15T07:07:27.029Z,91.14
2016-12-15T07:08:27.018Z,91.14
2016-12-15T07:09:27.005Z,91.52
2016-12-15T07:10:26.991Z,91.42
2016-12-15T07:11:26.981Z,91.14
2016-12-15T07:12:26.969Z,91.24
2016-12-15T07:13:26.955Z,91.33
2016-12-15T07:14:26.948Z,90.95
2016-12-15T07:15:26.941Z,91.24
2016-12-15T07:16:26.922Z,91.05
2016-12-15T07:17:26.934Z,90.38
2016-12-15T07:18:26.897Z,90.67
2016-12-15T07:19:26.887Z,90.48
2016-12-15T07:20:26.873Z,90.67
2016-12-15T07:21:26.862Z,90.57
2016-12-15T07:22:26.851Z,90.67
2016-12-15T07:23:26.841Z,90.67
2016-12-15T07:24:26.828Z,90.48
2016-12-15T07:25:26.816Z,90.57
2016-12-15T07:26:26.804Z,90.86
2016-12-15T07:27:26.796Z,90.86
2016-12-15T07:28:26.782Z,90.67
2016-12-15T07:29:26.769Z,90.62
2016-12-15T07:30:26.761Z,90.57
2016-12-15T07:31:26.747Z,90.57
2016-12-15T07:32:26.737Z,90.86
2016-12-15T07:33:27.029Z,90.62
2016-12-15T07:34:26.714Z,90.38
2016-12-15T07:35:26.700Z,90.62
2016-12-15T07:36:26.687Z,90.19
2016-12-15T07:37:26.676Z,90.05
2016-12-15T07:38:26.668Z,90.33
2016-12-15T07:39:26.653Z,90.1
2016-12-15T07:40:26.648Z,90.14
2016-12-15T07:41:26.634Z,90.52
2016-12-15T07:42:26.618Z,90.81
2016-12-15T07:43:26.607Z,90.9
2016-12-15T07:44:26.598Z,90.24
2016-12-15T07:45:26.584Z,90.14
2016-12-15T07:46:26.572Z,90.05
2016-12-15T07:47:26.560Z,90.9
2016-12-15T07:48:26.549Z,89.76
2016-12-15T07:49:26.538Z,90.43
2016-12-15T07:50:26.525Z,90.14
2016-12-15T07:51:26.516Z,89.58
2016-12-15T07:52:26.503Z,89.86
2016-12-15T07:53:26.492Z,90.05
2016-12-15T07:54:26.482Z,89.1
2016-12-15T07:55:26.469Z,89.1
2016-12-15T07:56:26.457Z,89.1
2016-12-15T07:57:26.446Z,89.39
2016-12-15T07:58:26.441Z,89.29
2016-12-15T07:59:26.423Z,89.29
2016-12-15T08:00:26.411Z,89
2016-12-15T08:01:26.401Z,89.39
2016-12-15T08:02:26.390Z,88.72
2016-12-15T08:03:26.378Z,88.34
2016-12-15T08:04:26.365Z,87.01
2016-12-15T08:05:26.356Z,87.58
2016-12-15T08:06:26.345Z,87.3
2016-12-15T08:07:26.332Z,87.87
2016-12-15T08:08:26.624Z,87.39
2016-12-15T08:09:26.312Z,87.49
2016-12-15T08:10:26.299Z,88.34
2016-12-15T08:11:26.287Z,89
2016-12-15T08:12:26.275Z,88.34
2016-12-15T08:13:26.264Z,88.91
2016-12-15T08:14:26.254Z,88.81
2016-12-15T08:15:26.240Z,89.1
2016-12-15T08:16:26.230Z,88.91
2016-12-15T08:17:26.219Z,88.34
2016-12-15T08:18:26.208Z,88.43
2016-12-15T08:19:26.195Z,88.53
2016-12-15T08:20:26.186Z,88.81
2016-12-15T08:21:26.174Z,88.72
2016-12-15T08:22:26.161Z,88.43
2016-12-15T08:23:26.151Z,88.34
2016-12-15T08:24:26.143Z,88.53
2016-12-15T08:25:26.128Z,88.91
2016-12-15T08:26:26.116Z,88.43
2016-12-15T08:27:26.105Z,88.43
2016-12-15T08:28:26.095Z,88.72
2016-12-15T08:29:26.082Z,88.91
2016-12-15T08:30:26.074Z,88.06
2016-12-15T08:31:26.060Z,88.06
2016-12-15T08:32:26.049Z,88.91
2016-12-15T08:33:26.037Z,88.15
2016-12-15T08:34:26.026Z,88.15
2016-12-15T08:35:26.017Z,88.43
2016-12-15T08:36:26.008Z,87.62
2016-12-15T08:37:25.992Z,86.25
2016-12-15T08:38:25.981Z,85.78
2016-12-15T08:39:25.971Z,84.92
2016-12-15T08:40:25.963Z,84.55
2016-12-15T08:41:25.952Z,84.74
2016-12-15T08:42:25.939Z,85.11
2016-12-15T08:43:25.927Z,84.83
2016-12-15T08:44:25.917Z,84.45
2016-12-15T08:45:25.903Z,83.97
2016-12-15T08:46:25.895Z,84.74
2016-12-15T08:47:25.882Z,85.4
2016-12-15T08:48:25.874Z,85.02
2016-12-15T08:49:25.864Z,84.64
2016-12-15T08:50:25.850Z,84.55
2016-12-15T08:51:25.840Z,85.02
2016-12-15T08:52:25.829Z,85.68
2016-12-15T08:53:25.817Z,85.11
2016-12-15T08:54:25.807Z,85.59
2016-12-15T08:55:25.794Z,85.78
2016-12-15T08:56:25.785Z,85.87
2016-12-15T08:57:25.773Z,85.59
2016-12-15T08:58:25.763Z,86.07
2016-12-15T08:59:25.750Z,85.11
2016-12-15T09:00:25.740Z,85.59
2016-12-15T09:01:25.730Z,85.02
2016-12-15T09:02:25.718Z,84.17
2016-12-15T09:03:25.709Z,84.36
2016-12-15T09:04:25.710Z,84.36
2016-12-15T09:05:25.688Z,84.45
2016-12-15T09:06:25.679Z,85.02
2016-12-15T09:07:25.663Z,85.49
2016-12-15T09:08:25.654Z,85.3
2016-12-15T09:09:25.641Z,85.49
2016-12-15T09:10:25.630Z,85.3
2016-12-15T09:11:25.618Z,85.59
2016-12-15T09:12:25.609Z,85.49
2016-12-15T09:13:25.596Z,85.49
2016-12-15T09:14:25.588Z,85.59
2016-12-15T09:15:25.574Z,85.4
2016-12-15T09:16:25.568Z,84.74
2016-12-15T09:17:25.552Z,84.78
2016-12-15T09:18:25.545Z,85.21
2016-12-15T09:19:25.532Z,84.68
2016-12-15T09:20:25.522Z,84.59
2016-12-15T09:21:25.509Z,83.73
2016-12-15T09:22:25.501Z,84.01
2016-12-15T09:23:25.493Z,84.01
2016-12-15T09:24:25.482Z,84.3
2016-12-15T09:25:25.475Z,84.26
2016-12-15T09:26:25.456Z,84.49
2016-12-15T09:27:25.444Z,84.59
2016-12-15T09:28:25.432Z,84.64
2016-12-15T09:29:25.421Z,84.21
2016-12-15T09:30:25.435Z,84.78
2016-12-15T09:31:25.406Z,83.36
2016-12-15T09:32:25.387Z,83.31
2016-12-15T09:33:25.377Z,83.36
2016-12-15T09:34:25.368Z,83.64
2016-12-15T09:35:25.357Z,84.01
2016-12-15T09:36:25.343Z,84.64
2016-12-15T09:37:25.337Z,85.06
2016-12-15T09:38:25.326Z,85.06
2016-12-15T09:39:25.312Z,85.16
2016-12-15T09:40:25.305Z,84.68
2016-12-15T09:41:25.291Z,84.78
2016-12-15T09:42:25.280Z,85.16
2016-12-15T09:43:25.269Z,84.49
2016-12-15T09:44:25.262Z,83.92
2016-12-15T09:45:25.554Z,83.45
2016-12-15T09:46:25.237Z,83.07
2016-12-15T09:47:25.227Z,83.54
2016-12-15T09:48:25.216Z,83.64
2016-12-15T09:49:25.205Z,82.97
2016-12-15T09:50:25.195Z,82.78
2016-12-15T09:51:25.184Z,83.36
2016-12-15T09:52:25.174Z,83.26
2016-12-15T10:01:25.070Z,81.68
2016-12-15T10:02:25.057Z,80.93
2016-12-15T10:03:25.046Z,80.74
2016-12-15T10:04:25.042Z,79.5
2016-12-15T10:05:25.022Z,79.5
2016-12-15T10:06:25.011Z,79.88
2016-12-15T10:07:25.003Z,79.97
2016-12-15T10:08:24.989Z,78.93
2016-12-15T10:09:24.979Z,78.93
2016-12-15T10:10:24.968Z,78.27
2016-12-15T10:11:24.968Z,77.6
2016-12-15T10:12:24.944Z,77.98
2016-12-15T10:13:24.936Z,77.79
2016-12-15T10:14:24.922Z,78.36
2016-12-15T10:15:24.914Z,78.64
2016-12-15T10:16:24.899Z,78.55
2016-12-15T10:17:24.890Z,78.74
2016-12-15T10:18:24.879Z,78.45
2016-12-15T10:19:24.869Z,78.36
2016-12-15T10:20:24.859Z,79.03
2016-12-15T10:21:24.849Z,79.03
2016-12-15T10:22:24.839Z,77.41
2016-12-15T10:23:24.826Z,77.12
2016-12-15T10:24:24.816Z,77.03
2016-12-15T10:25:24.807Z,77.12
2016-12-15T10:26:24.803Z,77.12
2016-12-15T10:27:24.786Z,77.03
2016-12-15T10:28:24.776Z,77.7
2016-12-15T10:29:24.767Z,78.17
2016-12-15T10:30:24.759Z,78.93
2016-12-15T10:31:24.745Z,78.45
2016-12-15T10:32:24.735Z,79.03
2016-12-15T10:33:24.725Z,78.55
2016-12-15T10:34:24.713Z,78.27
2016-12-15T10:35:24.705Z,78.08
2016-12-15T10:36:24.693Z,77.31
2016-12-15T10:37:24.685Z,76.27
2016-12-15T10:38:24.674Z,76.56
2016-12-15T10:39:24.663Z,76.46
2016-12-15T10:40:24.655Z,76.93
2016-12-15T10:41:24.644Z,76.37
2016-12-15T10:42:24.634Z,77.12
2016-12-15T10:43:24.625Z,77.03
2016-12-15T10:44:24.617Z,76.93
2016-12-15T10:45:24.604Z,76.08
2016-12-15T10:46:24.593Z,76.27
2016-12-15T10:47:24.584Z,77.22
2016-12-15T10:48:24.572Z,76.27
2016-12-15T10:49:24.566Z,76.37
2016-12-15T10:50:24.862Z,76.46
2016-12-15T10:51:24.569Z,76.18
2016-12-15T10:52:24.534Z,76.46
2016-12-15T10:53:24.526Z,76.46
2016-12-15T10:54:24.517Z,76.27
2016-12-15T10:55:24.504Z,74.94
2016-12-15T10:56:24.496Z,73.9
2016-12-15T10:57:24.484Z,74.47
2016-12-15T10:58:24.475Z,73.42
2016-12-15T10:59:24.464Z,72.38
2016-12-15T11:00:24.455Z,72.56
2016-12-15T11:01:24.444Z,73.52
2016-12-15T11:02:24.435Z,75.51
2016-12-15T11:03:24.425Z,76.27
2016-12-15T11:04:24.420Z,76.93
2016-12-15T11:05:24.406Z,75.89
2016-12-15T11:06:24.399Z,74.75
2016-12-15T11:07:24.387Z,74.18
2016-12-15T11:08:24.376Z,74.18
2016-12-15T11:09:24.366Z,72.28
2016-12-15T11:10:24.357Z,71.23
2016-12-15T11:11:24.346Z,70.1
2016-12-15T11:12:24.336Z,70.38
2016-12-15T11:13:24.329Z,70.48
2016-12-15T11:14:24.320Z,71.71
2016-12-15T11:15:24.306Z,72.09
2016-12-15T11:16:24.302Z,71.43
2016-12-15T11:17:24.287Z,71.23
2016-12-15T11:18:24.281Z,71.33
2016-12-15T11:19:24.267Z,71.81
2016-12-15T11:20:24.259Z,71.81
2016-12-15T11:21:24.250Z,70.48
2016-12-15T11:22:24.239Z,70
2016-12-15T11:23:24.227Z,68.96
2016-12-15T11:24:24.217Z,68.96
2016-12-15T11:25:24.206Z,68.1
2016-12-15T11:26:24.197Z,69.15
2016-12-15T11:27:24.187Z,69.81
2016-12-15T11:28:24.177Z,68.96
2016-12-15T11:29:24.169Z,70.29
2016-12-15T11:30:24.156Z,69.43
2016-12-15T11:31:24.151Z,69.05
2016-12-15T11:32:24.137Z,69.34
2016-12-15T11:33:24.127Z,70.1
2016-12-15T11:34:24.117Z,71.14
2016-12-15T11:35:24.106Z,71.43
2016-12-15T11:36:24.096Z,70.95
2016-12-15T11:37:24.085Z,70.76
2016-12-15T11:38:24.077Z,71.23
2016-12-15T11:39:24.369Z,70.76
2016-12-15T11:40:24.066Z,70
2016-12-15T11:41:24.045Z,69.62
2016-12-15T11:42:24.035Z,70
2016-12-15T11:43:24.038Z,69.91
2016-12-15T11:44:24.014Z,70
2016-12-15T11:45:24.004Z,70.57
2016-12-15T11:46:23.997Z,70.57
2016-12-15T11:47:23.984Z,71.04
2016-12-15T11:48:23.974Z,70.86
2016-12-15T11:49:23.968Z,70.38
2016-12-15T11:50:23.954Z,70.54
2016-12-15T11:51:23.943Z,70.73
2016-12-15T11:52:23.933Z,71.01
2016-12-15T11:53:23.922Z,71.39
2016-12-15T11:54:23.911Z,72.06
2016-12-15T11:55:23.903Z,73
2016-12-15T11:56:23.891Z,73.04
2016-12-15T11:57:23.880Z,73.23
2016-12-15T11:58:23.870Z,73.61
2016-12-15T11:59:23.859Z,74.08
2016-12-15T12:00:23.856Z,73.71
2016-12-15T12:01:23.840Z,72.85
2016-12-15T12:02:23.827Z,71.43
2016-12-15T12:03:23.818Z,71.23
2016-12-15T12:04:23.807Z,71.43
2016-12-15T12:05:23.796Z,71.14
2016-12-15T12:06:23.786Z,70.29
2016-12-15T12:07:23.775Z,70
2016-12-15T12:08:23.766Z,70.1
2016-12-15T12:09:23.753Z,69.71
2016-12-15T12:10:23.745Z,70.38
2016-12-15T12:11:23.734Z,69.34
2016-12-15T12:12:23.732Z,69.34
2016-12-15T12:13:23.713Z,68.67
2016-12-15T12:14:23.704Z,68.01
2016-12-15T12:15:23.696Z,68.48
2016-12-15T12:16:23.682Z,69.43
2016-12-15T12:17:23.672Z,70.1
2016-12-15T12:18:23.662Z,70.35
2016-12-15T12:19:23.653Z,71.52
2016-12-15T12:20:23.643Z,72.19
2016-12-15T12:21:23.635Z,73.23
2016-12-15T12:22:23.620Z,72.47
2016-12-15T12:23:23.610Z,72.56
2016-12-15T12:24:23.600Z,72.47
2016-12-15T12:25:23.591Z,73.33
2016-12-15T12:26:23.580Z,73.52
2016-12-15T12:27:23.569Z,72.28
2016-12-15T12:28:23.557Z,71.14
2016-12-15T12:29:23.546Z,70.38
2016-12-15T12:30:23.536Z,71.04
2016-12-15T12:31:23.526Z,71.14
2016-12-15T12:32:23.515Z,70.92
2016-12-15T12:33:23.506Z,70.38
2016-12-15T12:34:23.496Z,70.95
2016-12-15T12:35:23.484Z,71.81
2016-12-15T12:36:23.473Z,71.62
2016-12-15T12:37:23.467Z,71.23
2016-12-15T12:38:23.453Z,71.9
2016-12-15T12:39:23.446Z,71.33
2016-12-15T12:40:23.432Z,70.57
2016-12-15T12:41:23.423Z,70.38
2016-12-15T12:42:23.411Z,70.86
2016-12-15T12:43:23.410Z,71.11
2016-12-15T12:44:23.418Z,71.71
2016-12-15T12:45:23.385Z,71.96
2016-12-15T12:46:23.374Z,71.67
2016-12-15T12:47:23.561Z,72.44
2016-12-15T12:48:23.350Z,73.86
2016-12-15T12:49:23.338Z,73.57
2016-12-15T12:50:23.329Z,73.29
2016-12-15T12:51:23.318Z,73.61
2016-12-15T12:52:23.309Z,74.27
2016-12-15T12:53:23.297Z,73.52
2016-12-15T12:54:23.286Z,73.8
2016-12-15T12:55:23.278Z,73.61
2016-12-15T12:56:23.264Z,72.95
2016-12-15T12:57:23.258Z,72.38
2016-12-15T12:58:23.248Z,71.58
2016-12-15T12:59:23.236Z,70.92
2016-12-15T13:00:23.222Z,70.92
2016-12-15T13:01:23.230Z,71.48
2016-12-15T13:02:23.203Z,70.63
2016-12-15T13:03:23.194Z,70.06
2016-12-15T13:04:23.181Z,70.92